createdAt,value
2022-12-06T00:01:16.160Z,10.30
2022-12-06T00:03:45.951Z,11.47
2022-12-06T00:06:19.057Z,11.83
2022-12-06T00:08:49.031Z,13.03
2022-12-06T00:11:18.647Z,12.00
2022-12-06T00:13:47.608Z,11.03
2022-12-06T00:16:17.261Z,17.17
2022-12-06T00:18:47.137Z,12.77
2022-12-06T00:21:20.803Z,8.87
2022-12-06T00:23:51.590Z,13.03
2022-12-06T00:26:20.675Z,12.37
2022-12-06T00:28:49.135Z,8.90
2022-12-06T00:31:20.279Z,9.57
2022-12-06T00:33:48.439Z,9.33
2022-12-06T00:36:18.473Z,7.80
2022-12-06T00:38:46.931Z,10.73
2022-12-06T00:41:18.274Z,11.93
2022-12-06T00:43:47.026Z,13.07
2022-12-06T00:46:17.439Z,9.87
2022-12-06T00:48:45.611Z,10.17
2022-12-06T00:51:13.913Z,12.30
2022-12-06T00:53:42.150Z,11.50
2022-12-06T00:56:10.598Z,10.87
2022-12-06T00:58:40.257Z,13.63
2022-12-06T01:01:11.922Z,9.83
2022-12-06T01:03:39.877Z,8.43
2022-12-06T01:06:09.735Z,9.47
2022-12-06T01:08:38.014Z,9.00
2022-12-06T01:11:06.883Z,9.63
2022-12-06T01:13:36.815Z,9.13
2022-12-06T01:16:11.044Z,6.93
2022-12-06T01:18:39.783Z,8.90
2022-12-06T01:21:08.785Z,8.33
2022-12-06T01:23:36.934Z,11.03
2022-12-06T01:26:17.480Z,9.60
2022-12-06T01:28:45.487Z,13.50
2022-12-06T01:31:15.530Z,9.73
2022-12-06T01:33:44.193Z,9.53
2022-12-06T01:36:17.674Z,11.27
2022-12-06T01:38:45.914Z,9.57
2022-12-06T01:41:13.661Z,10.90
2022-12-06T01:43:43.827Z,10.00
2022-12-06T01:46:22.416Z,8.60
2022-12-06T01:48:55.477Z,10.03
2022-12-06T01:51:24.085Z,10.63
2022-12-06T01:53:53.763Z,10.30
2022-12-06T01:56:22.506Z,13.70
2022-12-06T01:58:55.496Z,10.07
2022-12-06T02:01:29.284Z,10.47
2022-12-06T02:03:59.775Z,14.63
2022-12-06T02:06:28.731Z,14.17
2022-12-06T02:08:58.141Z,15.07
2022-12-06T02:11:30.679Z,13.13
2022-12-06T02:14:02.337Z,10.30
2022-12-06T02:17:03.839Z,10.27
2022-12-06T02:19:53.241Z,9.67
2022-12-06T02:22:28.705Z,15.87
2022-12-06T02:25:06.862Z,12.10
2022-12-06T02:28:19.393Z,14.73
2022-12-06T02:30:56.704Z,12.23
2022-12-06T02:33:28.214Z,10.87
2022-12-06T02:36:01.877Z,13.73
2022-12-06T02:38:35.693Z,13.77
2022-12-06T02:41:09.396Z,15.43
2022-12-06T02:43:41.991Z,11.57
2022-12-06T02:46:14.021Z,12.00
2022-12-06T02:48:44.066Z,15.10
2022-12-06T02:51:15.390Z,11.20
2022-12-06T02:53:47.758Z,12.60
2022-12-06T02:56:17.667Z,10.47
2022-12-06T02:58:45.671Z,14.70
2022-12-06T03:01:17.902Z,12.60
2022-12-06T03:04:08.664Z,15.23
2022-12-06T03:07:07.163Z,12.70
2022-12-06T03:09:49.607Z,15.83
2022-12-06T03:12:29.960Z,14.30
2022-12-06T03:15:10.038Z,12.87
2022-12-06T03:17:43.579Z,11.03
2022-12-06T03:20:16.824Z,12.17
2022-12-06T03:22:50.202Z,10.50
2022-12-06T03:25:19.005Z,14.33
2022-12-06T03:27:49.318Z,14.53
2022-12-06T03:30:17.785Z,12.50
2022-12-06T03:32:49.859Z,11.40
2022-12-06T03:35:23.218Z,12.40
2022-12-06T03:37:56.786Z,15.40
2022-12-06T03:40:29.259Z,12.60
2022-12-06T03:42:58.465Z,13.70
2022-12-06T03:45:34.819Z,11.83
2022-12-06T03:48:09.474Z,11.50
2022-12-06T03:50:41.294Z,11.83
2022-12-06T03:53:09.443Z,13.80
2022-12-06T03:55:37.225Z,12.80
2022-12-06T03:58:05.309Z,14.37
2022-12-06T04:00:33.101Z,12.13
2022-12-06T04:03:00.986Z,9.93
2022-12-06T04:05:30.371Z,10.27
2022-12-06T04:07:58.235Z,8.03
2022-12-06T04:10:29.051Z,9.40
2022-12-06T04:13:02.730Z,11.83
2022-12-06T04:15:33.198Z,13.83
2022-12-06T04:18:13.964Z,12.37
2022-12-06T04:21:02.881Z,12.47
2022-12-06T04:23:33.215Z,12.87
2022-12-06T04:26:01.260Z,12.33
2022-12-06T04:28:46.419Z,14.20
2022-12-06T04:31:31.668Z,13.87
2022-12-06T04:34:17.061Z,13.77
2022-12-06T04:37:04.518Z,13.00
2022-12-06T04:39:32.824Z,11.87
2022-12-06T04:42:18.021Z,11.70
2022-12-06T04:44:45.919Z,12.10
2022-12-06T04:47:16.979Z,12.40
2022-12-06T04:49:44.841Z,12.17
2022-12-06T04:52:14.630Z,14.33
2022-12-06T04:54:43.069Z,14.03
2022-12-06T04:57:14.410Z,12.67
2022-12-06T04:59:43.980Z,15.90
2022-12-06T05:02:14.887Z,13.27
2022-12-06T05:04:43.169Z,13.77
2022-12-06T05:07:11.654Z,14.50
2022-12-06T05:09:43.058Z,8.77
2022-12-06T05:12:11.029Z,12.97
2022-12-06T05:14:38.795Z,11.93
2022-12-06T05:17:06.606Z,14.50
2022-12-06T05:19:34.471Z,14.00
2022-12-06T05:22:02.301Z,11.97
2022-12-06T05:24:30.169Z,11.47
2022-12-06T05:26:59.333Z,16.20
2022-12-06T05:29:27.115Z,15.50
2022-12-06T05:31:54.932Z,14.90
2022-12-06T05:34:22.925Z,17.40
2022-12-06T05:36:50.836Z,15.33
2022-12-06T05:39:18.626Z,12.77
2022-12-06T05:41:46.324Z,13.47
2022-12-06T05:44:15.419Z,13.70
2022-12-06T05:46:43.238Z,13.70
2022-12-06T05:49:11.130Z,14.63
2022-12-06T05:51:39.414Z,13.50
2022-12-06T05:54:07.304Z,16.17
2022-12-06T05:56:35.265Z,13.83
2022-12-06T05:59:05.139Z,13.00
2022-12-06T06:01:34.408Z,14.23
2022-12-06T06:04:02.480Z,13.67
2022-12-06T06:06:30.366Z,13.97
2022-12-06T06:08:58.274Z,16.27
2022-12-06T06:11:26.285Z,12.43
2022-12-06T06:13:54.824Z,14.90
2022-12-06T06:16:25.111Z,15.33
2022-12-06T06:18:54.366Z,14.73
2022-12-06T06:21:22.506Z,14.63
2022-12-06T06:23:50.273Z,13.10
2022-12-06T06:26:18.139Z,15.77
2022-12-06T06:28:45.934Z,16.03
2022-12-06T06:31:13.726Z,11.27
2022-12-06T06:33:41.562Z,11.43
2022-12-06T06:36:11.521Z,12.70
2022-12-06T06:38:39.600Z,8.70
2022-12-06T06:41:07.930Z,14.50
2022-12-06T06:43:35.876Z,15.23
2022-12-06T06:46:06.847Z,15.30
2022-12-06T06:48:37.206Z,13.97
2022-12-06T06:51:05.871Z,13.83
2022-12-06T06:53:35.270Z,14.93
2022-12-06T06:56:03.687Z,12.43
2022-12-06T06:58:31.581Z,20.50
2022-12-06T07:01:01.144Z,15.67
2022-12-06T07:03:30.031Z,15.63
2022-12-06T07:05:59.724Z,12.53
2022-12-06T07:08:28.973Z,11.07
2022-12-06T07:10:58.431Z,13.67
2022-12-06T07:13:28.264Z,10.37
2022-12-06T07:15:56.557Z,13.03
2022-12-06T07:18:24.380Z,9.87
2022-12-06T07:21:00.378Z,8.93
2022-12-06T07:23:28.450Z,16.07
2022-12-06T07:26:06.130Z,10.27
2022-12-06T07:28:36.333Z,12.33
2022-12-06T07:31:09.424Z,10.30
2022-12-06T07:33:37.309Z,12.33
2022-12-06T07:36:14.287Z,10.17
2022-12-06T07:38:43.682Z,13.33
2022-12-06T07:41:40.670Z,14.00
2022-12-06T07:44:36.477Z,15.97
2022-12-06T07:47:04.590Z,19.60
2022-12-06T07:49:32.757Z,14.90
2022-12-06T07:52:00.631Z,14.63
2022-12-06T07:54:28.526Z,16.03
2022-12-06T07:56:57.626Z,14.33
2022-12-06T07:59:26.408Z,15.47
2022-12-06T08:01:54.454Z,14.23
2022-12-06T08:04:22.828Z,13.23
2022-12-06T08:06:50.696Z,12.57
2022-12-06T08:09:18.520Z,12.47
2022-12-06T08:11:46.504Z,15.53
2022-12-06T08:14:15.822Z,13.00
2022-12-06T08:16:43.613Z,13.40
2022-12-06T08:19:11.458Z,14.67
2022-12-06T08:21:39.310Z,17.80
2022-12-06T08:24:10.561Z,13.97
2022-12-06T08:26:38.331Z,11.47
2022-12-06T08:29:06.187Z,10.73
2022-12-06T08:31:35.906Z,11.27
2022-12-06T08:34:04.921Z,8.67
2022-12-06T08:36:32.888Z,8.40
2022-12-06T08:39:02.043Z,6.70
2022-12-06T08:41:47.390Z,6.47
2022-12-06T08:44:16.732Z,7.43
2022-12-06T08:46:47.142Z,6.30
2022-12-06T08:49:16.081Z,8.17
2022-12-06T08:51:44.228Z,6.10
2022-12-06T08:54:16.859Z,6.67
2022-12-06T08:56:44.760Z,6.30
2022-12-06T08:59:12.872Z,5.47
2022-12-06T09:01:40.941Z,8.53
2022-12-06T09:04:14.210Z,8.67
2022-12-06T09:06:43.879Z,7.53
2022-12-06T09:09:13.838Z,7.83
2022-12-06T09:11:42.502Z,6.40
2022-12-06T09:14:17.882Z,7.17
2022-12-06T09:16:49.537Z,6.63
2022-12-06T09:19:19.818Z,6.60
2022-12-06T09:21:47.681Z,7.20
2022-12-06T09:24:17.917Z,8.57
2022-12-06T09:26:45.812Z,8.77
2022-12-06T09:29:14.203Z,8.50
2022-12-06T09:31:42.484Z,18.30
2022-12-06T09:34:11.896Z,13.43
2022-12-06T09:36:45.113Z,9.90
2022-12-06T09:39:16.138Z,9.43
2022-12-06T09:42:10.658Z,11.47
2022-12-06T09:45:02.929Z,12.13
2022-12-06T09:47:48.049Z,12.33
2022-12-06T09:50:26.890Z,10.43
2022-12-06T09:53:15.934Z,9.60
2022-12-06T09:56:00.246Z,10.47
2022-12-06T09:58:45.444Z,11.63
2022-12-06T10:01:25.744Z,12.80
2022-12-06T10:04:07.308Z,13.33
2022-12-06T10:06:41.517Z,12.10
2022-12-06T10:09:25.915Z,10.40
2022-12-06T10:12:10.815Z,13.07
2022-12-06T10:14:55.660Z,9.57
2022-12-06T10:17:34.799Z,18.60
2022-12-06T10:20:15.554Z,12.10
2022-12-06T10:22:59.660Z,13.57
2022-12-06T10:25:39.417Z,11.97
2022-12-06T10:28:13.625Z,11.83
2022-12-06T10:30:48.496Z,11.17
2022-12-06T10:33:31.355Z,11.73
2022-12-06T10:36:02.205Z,11.10
2022-12-06T10:38:38.394Z,9.30
2022-12-06T10:41:15.540Z,8.17
2022-12-06T10:43:51.312Z,8.97
2022-12-06T10:46:45.218Z,8.87
2022-12-06T10:49:23.338Z,7.70
2022-12-06T10:51:58.422Z,8.60
2022-12-06T10:54:31.563Z,8.37
2022-12-06T10:57:06.331Z,6.93
2022-12-06T10:59:38.290Z,8.53
2022-12-06T11:02:21.458Z,8.00
2022-12-06T11:04:50.407Z,8.20
2022-12-06T11:07:24.821Z,6.40
2022-12-06T11:09:54.680Z,7.30
2022-12-06T11:12:31.480Z,7.33
2022-12-06T11:15:05.141Z,5.97
2022-12-06T11:17:37.714Z,9.37
2022-12-06T11:20:16.424Z,6.20
2022-12-06T11:22:53.419Z,6.73
2022-12-06T11:25:29.680Z,7.77
2022-12-06T11:28:06.444Z,8.63
2022-12-06T11:30:37.064Z,9.43
2022-12-06T11:33:06.064Z,8.03
2022-12-06T11:35:34.066Z,6.33
2022-12-06T11:38:05.133Z,7.83
2022-12-06T11:40:37.812Z,8.33
2022-12-06T11:43:16.681Z,8.97
2022-12-06T11:45:45.846Z,11.80
2022-12-06T11:48:16.962Z,9.23
2022-12-06T11:50:46.238Z,6.93
2022-12-06T11:53:20.366Z,7.73
2022-12-06T11:55:53.141Z,6.00
2022-12-06T11:58:27.918Z,5.90
2022-12-06T12:01:02.285Z,5.10
2022-12-06T12:03:32.524Z,5.97
2022-12-06T12:06:17.663Z,4.90
2022-12-06T12:09:01.296Z,6.73
2022-12-06T12:11:31.621Z,7.13
2022-12-06T12:14:03.697Z,5.63
2022-12-06T12:16:37.073Z,4.87
2022-12-06T12:19:18.269Z,4.00
2022-12-06T12:21:50.953Z,6.63
2022-12-06T12:27:41.051Z,6.87
2022-12-06T12:30:25.521Z,6.27
2022-12-06T12:33:11.213Z,7.30
2022-12-06T12:35:40.690Z,4.87
2022-12-06T12:38:19.808Z,7.10
2022-12-06T12:40:51.115Z,9.80
2022-12-06T12:43:21.921Z,6.10
2022-12-06T12:46:21.143Z,5.50
2022-12-06T12:48:51.105Z,4.57
2022-12-06T12:51:32.199Z,5.53
2022-12-06T12:54:01.953Z,4.40
2022-12-06T12:56:33.652Z,5.77
2022-12-06T12:59:05.312Z,4.20
2022-12-06T13:01:42.545Z,6.33
2022-12-06T13:04:18.578Z,5.13
2022-12-06T13:06:50.931Z,4.87
2022-12-06T13:09:26.149Z,5.33
2022-12-06T13:12:02.678Z,5.90
2022-12-06T13:14:32.455Z,4.00
2022-12-06T13:17:07.720Z,6.00
2022-12-06T13:19:40.467Z,6.03
2022-12-06T13:22:16.587Z,6.03
2022-12-06T13:24:53.096Z,9.27
2022-12-06T13:27:23.942Z,8.63
2022-12-06T13:29:56.713Z,14.30
2022-12-06T13:32:33.307Z,6.63
2022-12-06T13:35:06.681Z,5.77
2022-12-06T13:37:42.950Z,5.63
2022-12-06T13:40:39.793Z,4.63
2022-12-06T13:43:54.707Z,5.57
2022-12-06T13:46:31.100Z,4.37
2022-12-06T13:49:02.188Z,6.83
2022-12-06T13:51:44.879Z,4.03
2022-12-06T13:54:37.105Z,5.17
2022-12-06T13:57:25.885Z,4.30
2022-12-06T13:59:53.803Z,6.23
2022-12-06T14:02:51.065Z,5.53
2022-12-06T14:08:31.242Z,4.30
2022-12-06T14:11:21.405Z,4.10
2022-12-06T14:13:59.962Z,5.13
2022-12-06T14:16:33.586Z,5.33
2022-12-06T14:19:03.872Z,5.17
2022-12-06T14:21:38.635Z,4.13
2022-12-06T14:24:08.181Z,4.37
2022-12-06T14:26:36.507Z,4.47
2022-12-06T14:29:04.432Z,5.50
2022-12-06T14:31:40.139Z,4.77
2022-12-06T14:34:25.675Z,3.93
2022-12-06T14:36:54.134Z,4.17
2022-12-06T14:39:26.479Z,3.93
2022-12-06T14:42:14.294Z,4.00
2022-12-06T14:44:47.799Z,4.93
2022-12-06T14:47:17.541Z,3.77
2022-12-06T14:50:03.472Z,5.00
2022-12-06T14:52:32.353Z,4.77
2022-12-06T14:55:18.138Z,4.57
2022-12-06T14:57:48.391Z,3.40
2022-12-06T15:00:26.299Z,4.00
2022-12-06T15:03:17.788Z,4.40
2022-12-06T15:05:49.681Z,5.17
2022-12-06T15:08:33.885Z,4.20
2022-12-06T15:11:05.353Z,3.47
2022-12-06T15:13:32.782Z,5.40
2022-12-06T15:16:05.437Z,3.90
2022-12-06T15:18:36.160Z,4.07
2022-12-06T15:21:12.128Z,4.37
2022-12-06T15:23:41.018Z,4.70
2022-12-06T15:26:13.119Z,5.23
2022-12-06T15:28:41.416Z,4.53
2022-12-06T15:31:17.483Z,4.70
2022-12-06T15:33:45.872Z,3.43
2022-12-06T15:36:17.998Z,4.90
2022-12-06T15:38:46.204Z,7.33
2022-12-06T15:41:18.673Z,5.40
2022-12-06T15:43:47.208Z,5.80
2022-12-06T15:46:19.664Z,5.30
2022-12-06T15:48:50.809Z,4.60
2022-12-06T15:51:21.283Z,4.80
2022-12-06T15:53:51.979Z,5.93
2022-12-06T15:56:23.008Z,6.27
2022-12-06T15:58:51.906Z,5.03
2022-12-06T16:01:22.528Z,4.33
2022-12-06T16:03:52.076Z,6.60
2022-12-06T16:06:21.742Z,5.67
2022-12-06T16:08:50.233Z,5.37
2022-12-06T16:11:20.550Z,5.67
2022-12-06T16:13:50.664Z,6.23
2022-12-06T16:16:20.481Z,5.37
2022-12-06T16:18:48.919Z,5.80
2022-12-06T16:21:21.799Z,4.80
2022-12-06T16:24:14.234Z,4.20
2022-12-06T16:26:45.082Z,4.90
2022-12-06T16:29:17.114Z,4.30
2022-12-06T16:31:46.029Z,5.47
2022-12-06T16:34:14.840Z,4.47
2022-12-06T16:36:56.262Z,4.33
2022-12-06T16:39:24.307Z,4.00
2022-12-06T16:41:52.058Z,5.03
2022-12-06T16:44:21.457Z,4.40
2022-12-06T16:46:49.693Z,3.93
2022-12-06T16:49:45.290Z,5.87
2022-12-06T16:52:07.825Z,6.10
2022-12-06T16:54:35.892Z,7.53
2022-12-06T16:57:03.871Z,7.33
2022-12-06T16:59:33.026Z,9.40
2022-12-06T17:02:01.649Z,6.47
2022-12-06T17:04:31.458Z,7.43
2022-12-06T17:06:59.315Z,6.53
2022-12-06T17:09:29.693Z,6.47
2022-12-06T17:12:07.595Z,5.03
2022-12-06T17:14:37.940Z,5.13
2022-12-06T17:17:06.203Z,5.43
2022-12-06T17:19:34.542Z,6.17
2022-12-06T17:22:06.214Z,5.40
2022-12-06T17:24:34.453Z,5.63
2022-12-06T17:27:02.379Z,6.43
2022-12-06T17:29:30.319Z,6.80
2022-12-06T17:31:59.495Z,5.90
2022-12-06T17:34:27.518Z,5.87
2022-12-06T17:36:57.387Z,5.57
2022-12-06T17:39:26.056Z,7.30
2022-12-06T17:42:11.218Z,5.27
2022-12-06T17:44:39.787Z,3.90
2022-12-06T17:47:09.012Z,5.83
2022-12-06T17:49:38.403Z,4.17
2022-12-06T17:52:08.784Z,6.10
2022-12-06T17:54:36.729Z,4.40
2022-12-06T17:57:04.726Z,5.27
2022-12-06T17:59:33.985Z,5.07
2022-12-06T18:02:18.381Z,5.93
2022-12-06T18:04:48.486Z,5.93
2022-12-06T18:07:17.247Z,4.40
2022-12-06T18:09:47.426Z,4.80
2022-12-06T18:12:17.215Z,4.67
2022-12-06T18:14:45.310Z,5.47
2022-12-06T18:17:13.645Z,6.43
2022-12-06T18:19:46.735Z,5.83
2022-12-06T18:22:16.433Z,5.63
2022-12-06T18:24:44.640Z,6.47
2022-12-06T18:27:12.840Z,6.00
2022-12-06T18:29:43.184Z,5.80
2022-12-06T18:32:11.110Z,5.43
2022-12-06T18:34:41.218Z,6.50
2022-12-06T18:37:09.282Z,5.20
2022-12-06T18:39:40.748Z,4.47
2022-12-06T18:42:08.547Z,6.53
2022-12-06T18:44:36.438Z,4.23
2022-12-06T18:47:04.308Z,4.93
2022-12-06T18:49:32.321Z,5.50
2022-12-06T18:52:00.130Z,5.33
2022-12-06T18:54:30.306Z,5.60
2022-12-06T18:56:59.888Z,7.37
2022-12-06T18:59:28.716Z,6.03
2022-12-06T19:01:56.853Z,5.33
2022-12-06T19:04:24.829Z,5.00
2022-12-06T19:06:52.813Z,7.50
2022-12-06T19:09:22.386Z,6.53
2022-12-06T19:11:50.294Z,6.27
2022-12-06T19:14:19.441Z,6.37
2022-12-06T19:16:48.970Z,5.77
2022-12-06T19:19:21.074Z,6.30
2022-12-06T19:21:50.114Z,7.13
2022-12-06T19:24:21.580Z,6.93
2022-12-06T19:26:50.971Z,5.80
2022-12-06T19:29:20.598Z,6.40
2022-12-06T19:31:48.478Z,7.50
2022-12-06T19:34:18.839Z,6.13
2022-12-06T19:36:47.191Z,7.20
2022-12-06T19:39:17.874Z,6.77
2022-12-06T19:42:03.692Z,6.17
2022-12-06T19:44:33.252Z,6.33
2022-12-06T19:47:01.673Z,5.30
2022-12-06T19:49:29.600Z,9.23
2022-12-06T19:51:57.352Z,8.87
2022-12-06T19:54:26.905Z,7.30
2022-12-06T19:56:57.071Z,6.77
2022-12-06T19:59:27.447Z,5.77
2022-12-06T20:01:58.163Z,6.77
2022-12-06T20:04:28.407Z,6.53
2022-12-06T20:06:56.256Z,7.80
2022-12-06T20:09:26.926Z,6.43
2022-12-06T20:12:05.414Z,7.07
2022-12-06T20:14:41.040Z,6.73
2022-12-06T20:17:14.924Z,5.33
2022-12-06T20:19:46.011Z,6.43
2022-12-06T20:22:14.936Z,6.80
2022-12-06T20:24:43.188Z,6.60
2022-12-06T20:27:11.552Z,5.33
2022-12-06T20:29:41.547Z,5.87
2022-12-06T20:32:12.977Z,6.30
2022-12-06T20:34:40.876Z,4.83
2022-12-06T20:37:08.662Z,5.30
2022-12-06T20:39:36.723Z,5.03
2022-12-06T20:42:06.320Z,6.13
2022-12-06T20:44:34.732Z,7.30
2022-12-06T20:47:02.733Z,7.27
2022-12-06T20:49:32.073Z,11.83
2022-12-06T20:52:02.050Z,7.83
2022-12-06T20:54:30.064Z,6.57
2022-12-06T20:56:58.544Z,7.57
2022-12-06T20:59:29.738Z,9.80
2022-12-06T21:01:57.778Z,7.67
2022-12-06T21:04:26.123Z,6.60
2022-12-06T21:06:55.380Z,6.43
2022-12-06T21:09:23.591Z,5.40
2022-12-06T21:11:53.666Z,5.23
2022-12-06T21:14:22.093Z,6.73
2022-12-06T21:16:50.058Z,6.10
2022-12-06T21:19:19.657Z,6.23
2022-12-06T21:21:49.545Z,6.87
2022-12-06T21:24:21.045Z,6.13
2022-12-06T21:26:49.703Z,5.80
2022-12-06T21:29:18.885Z,6.30
2022-12-06T21:31:47.025Z,5.67
2022-12-06T21:34:15.910Z,5.67
2022-12-06T21:36:44.835Z,6.33
2022-12-06T21:39:14.133Z,7.67
2022-12-06T21:41:45.849Z,6.53
2022-12-06T21:44:13.637Z,6.37
2022-12-06T21:46:41.604Z,6.30
2022-12-06T21:49:10.613Z,5.40
2022-12-06T21:51:38.423Z,6.87
2022-12-06T21:54:06.274Z,7.23
2022-12-06T21:56:35.085Z,6.40
2022-12-06T21:59:04.310Z,6.93
2022-12-06T22:01:32.695Z,4.80
2022-12-06T22:04:03.062Z,7.77
2022-12-06T22:06:32.189Z,7.40
2022-12-06T22:09:01.633Z,7.60
2022-12-06T22:11:32.304Z,9.77
2022-12-06T22:14:01.412Z,6.87
2022-12-06T22:16:30.593Z,8.50
2022-12-06T22:18:59.063Z,6.53
2022-12-06T22:21:28.466Z,7.43
2022-12-06T22:23:57.905Z,6.60
2022-12-06T22:26:28.126Z,6.10
2022-12-06T22:28:56.588Z,7.93
2022-12-06T22:31:26.629Z,8.00
2022-12-06T22:33:57.576Z,6.33
2022-12-06T22:36:26.161Z,6.97
2022-12-06T22:38:55.279Z,5.90
2022-12-06T22:41:24.208Z,6.93
2022-12-06T22:43:53.478Z,7.63
2022-12-06T22:46:21.791Z,7.03
2022-12-06T22:48:50.081Z,6.73
2022-12-06T22:51:21.285Z,6.77
2022-12-06T22:53:52.816Z,7.57
2022-12-06T22:56:20.772Z,6.90
2022-12-06T22:58:48.977Z,7.43
2022-12-06T23:01:19.183Z,5.63
2022-12-06T23:03:48.600Z,6.13
2022-12-06T23:06:17.777Z,7.47
2022-12-06T23:08:47.513Z,8.30
2022-12-06T23:11:17.863Z,6.20
2022-12-06T23:13:45.857Z,8.20
2022-12-06T23:16:15.538Z,6.97
2022-12-06T23:18:43.871Z,6.23
2022-12-06T23:21:14.801Z,7.30
2022-12-06T23:23:49.296Z,8.17
2022-12-06T23:26:18.513Z,8.33
2022-12-06T23:28:47.266Z,7.50
2022-12-06T23:31:21.167Z,9.37
2022-12-06T23:33:52.917Z,5.63
2022-12-06T23:36:23.021Z,6.43
2022-12-06T23:38:52.630Z,6.07
2022-12-06T23:41:22.244Z,5.03
2022-12-06T23:43:50.438Z,6.90
2022-12-06T23:46:22.544Z,8.60
2022-12-06T23:48:50.958Z,8.13
2022-12-06T23:51:20.854Z,7.33
2022-12-06T23:53:52.857Z,6.87
2022-12-06T23:56:22.749Z,6.87
2022-12-06T23:58:53.377Z,8.67
